sensor_id;sensor_type;location;lat;lon;timestamp;P1;durP1;ratioP1;P2;durP2;ratioP2
25249;SDS011;13201;51.148;13.738;2023-03-21T00:00:54;12.30;;;6.97;;
25249;SDS011;13201;51.148;13.738;2023-03-21T00:03:24;11.43;;;6.65;;
25249;SDS011;13201;51.148;13.738;2023-03-21T00:05:50;14.40;;;7.00;;
25249;SDS011;13201;51.148;13.738;2023-03-21T00:10:43;14.00;;;7.65;;
25249;SDS011;13201;51.148;13.738;2023-03-21T00:13:13;13.80;;;7.88;;
25249;SDS011;13201;51.148;13.738;2023-03-21T00:15:40;18.30;;;8.20;;
25249;SDS011;13201;51.148;13.738;2023-03-21T00:18:18;15.05;;;8.15;;
25249;SDS011;13201;51.148;13.738;2023-03-21T00:20:56;14.77;;;8.15;;
25249;SDS011;13201;51.148;13.738;2023-03-21T00:23:23;17.67;;;9.10;;
25249;SDS011;13201;51.148;13.738;2023-03-21T00:25:52;20.92;;;10.45;;
25249;SDS011;13201;51.148;13.738;2023-03-21T00:28:18;20.02;;;10.07;;
25249;SDS011;13201;51.148;13.738;2023-03-21T00:30:44;19.03;;;9.73;;
25249;SDS011;13201;51.148;13.738;2023-03-21T00:33:10;18.83;;;10.23;;
25249;SDS011;13201;51.148;13.738;2023-03-21T00:35:38;19.00;;;10.43;;
25249;SDS011;13201;51.148;13.738;2023-03-21T00:38:06;20.52;;;10.80;;
25249;SDS011;13201;51.148;13.738;2023-03-21T00:40:32;23.50;;;12.07;;
25249;SDS011;13201;51.148;13.738;2023-03-21T00:42:58;22.75;;;12.10;;
25249;SDS011;13201;51.148;13.738;2023-03-21T00:45:23;21.08;;;11.13;;
25249;SDS011;13201;51.148;13.738;2023-03-21T00:47:49;20.17;;;11.25;;
25249;SDS011;13201;51.148;13.738;2023-03-21T00:50:15;21.23;;;10.98;;
25249;SDS011;13201;51.148;13.738;2023-03-21T00:52:42;18.88;;;10.95;;
25249;SDS011;13201;51.148;13.738;2023-03-21T00:55:10;24.90;;;11.98;;
25249;SDS011;13201;51.148;13.738;2023-03-21T00:57:41;23.58;;;11.40;;
25249;SDS011;13201;51.148;13.738;2023-03-21T01:00:08;22.45;;;11.18;;
25249;SDS011;13201;51.148;13.738;2023-03-21T01:02:36;22.67;;;11.85;;
25249;SDS011;13201;51.148;13.738;2023-03-21T01:05:07;21.80;;;12.13;;
25249;SDS011;13201;51.148;13.738;2023-03-21T01:30:53;25.52;;;12.55;;
25249;SDS011;13201;51.148;13.738;2023-03-21T01:33:19;29.27;;;13.63;;
25249;SDS011;13201;51.148;13.738;2023-03-21T01:35:46;25.35;;;12.57;;
25249;SDS011;13201;51.148;13.738;2023-03-21T01:38:12;22.35;;;12.50;;
25249;SDS011;13201;51.148;13.738;2023-03-21T01:40:38;22.33;;;11.38;;
25249;SDS011;13201;51.148;13.738;2023-03-21T01:43:14;20.83;;;11.45;;
25249;SDS011;13201;51.148;13.738;2023-03-21T01:48:34;17.73;;;10.10;;
25249;SDS011;13201;51.148;13.738;2023-03-21T01:51:02;20.13;;;10.98;;
25249;SDS011;13201;51.148;13.738;2023-03-21T01:53:28;24.73;;;11.97;;
25249;SDS011;13201;51.148;13.738;2023-03-21T01:56:00;21.67;;;11.95;;
25249;SDS011;13201;51.148;13.738;2023-03-21T01:58:31;22.77;;;11.38;;
25249;SDS011;13201;51.148;13.738;2023-03-21T02:00:57;23.25;;;11.00;;
25249;SDS011;13201;51.148;13.738;2023-03-21T02:03:24;20.02;;;11.20;;
25249;SDS011;13201;51.148;13.738;2023-03-21T02:06:10;20.80;;;10.23;;
25249;SDS011;13201;51.148;13.738;2023-03-21T02:08:39;19.73;;;11.63;;
25249;SDS011;13201;51.148;13.738;2023-03-21T02:11:05;21.63;;;11.68;;
25249;SDS011;13201;51.148;13.738;2023-03-21T02:13:32;19.80;;;11.75;;
25249;SDS011;13201;51.148;13.738;2023-03-21T02:18:37;20.92;;;12.38;;
25249;SDS011;13201;51.148;13.738;2023-03-21T02:21:26;24.33;;;11.90;;
25249;SDS011;13201;51.148;13.738;2023-03-21T02:24:07;24.23;;;12.32;;
25249;SDS011;13201;51.148;13.738;2023-03-21T02:29:42;21.90;;;11.43;;
25249;SDS011;13201;51.148;13.738;2023-03-21T02:32:39;23.08;;;12.35;;
25249;SDS011;13201;51.148;13.738;2023-03-21T02:38:05;22.25;;;11.90;;
25249;SDS011;13201;51.148;13.738;2023-03-21T02:40:41;21.87;;;11.33;;
25249;SDS011;13201;51.148;13.738;2023-03-21T02:46:20;25.92;;;12.68;;
25249;SDS011;13201;51.148;13.738;2023-03-21T02:48:58;22.58;;;12.25;;
25249;SDS011;13201;51.148;13.738;2023-03-21T02:51:30;21.35;;;12.98;;
25249;SDS011;13201;51.148;13.738;2023-03-21T02:54:00;23.42;;;13.65;;
25249;SDS011;13201;51.148;13.738;2023-03-21T02:56:28;23.00;;;12.27;;
25249;SDS011;13201;51.148;13.738;2023-03-21T02:58:55;23.30;;;12.82;;
25249;SDS011;13201;51.148;13.738;2023-03-21T03:01:21;24.35;;;13.10;;
25249;SDS011;13201;51.148;13.738;2023-03-21T03:03:49;25.70;;;13.43;;
25249;SDS011;13201;51.148;13.738;2023-03-21T03:06:17;25.73;;;13.57;;
25249;SDS011;13201;51.148;13.738;2023-03-21T03:19:28;25.52;;;13.95;;
25249;SDS011;13201;51.148;13.738;2023-03-21T03:27:01;22.85;;;13.20;;
25249;SDS011;13201;51.148;13.738;2023-03-21T03:29:33;24.05;;;13.52;;
25249;SDS011;13201;51.148;13.738;2023-03-21T03:32:12;24.55;;;14.10;;
25249;SDS011;13201;51.148;13.738;2023-03-21T03:34:41;27.27;;;13.52;;
25249;SDS011;13201;51.148;13.738;2023-03-21T03:37:15;22.70;;;13.25;;
25249;SDS011;13201;51.148;13.738;2023-03-21T03:39:47;20.92;;;12.48;;
25249;SDS011;13201;51.148;13.738;2023-03-21T03:42:31;23.58;;;13.40;;
25249;SDS011;13201;51.148;13.738;2023-03-21T03:45:01;25.35;;;13.48;;
25249;SDS011;13201;51.148;13.738;2023-03-21T03:47:32;22.83;;;12.43;;
25249;SDS011;13201;51.148;13.738;2023-03-21T03:50:06;25.67;;;14.00;;
25249;SDS011;13201;51.148;13.738;2023-03-21T03:52:58;21.35;;;12.38;;
25249;SDS011;13201;51.148;13.738;2023-03-21T03:55:45;24.05;;;13.75;;
25249;SDS011;13201;51.148;13.738;2023-03-21T03:58:15;24.52;;;13.07;;
25249;SDS011;13201;51.148;13.738;2023-03-21T04:00:46;25.60;;;14.25;;
25249;SDS011;13201;51.148;13.738;2023-03-21T04:03:12;24.77;;;13.57;;
25249;SDS011;13201;51.148;13.738;2023-03-21T04:05:38;25.40;;;13.93;;
25249;SDS011;13201;51.148;13.738;2023-03-21T04:08:06;24.27;;;13.40;;
25249;SDS011;13201;51.148;13.738;2023-03-21T04:10:34;21.45;;;12.40;;
25249;SDS011;13201;51.148;13.738;2023-03-21T04:13:00;21.45;;;12.30;;
25249;SDS011;13201;51.148;13.738;2023-03-21T04:15:26;23.05;;;12.70;;
25249;SDS011;13201;51.148;13.738;2023-03-21T04:17:52;25.08;;;13.68;;
25249;SDS011;13201;51.148;13.738;2023-03-21T04:20:17;22.55;;;11.57;;
25249;SDS011;13201;51.148;13.738;2023-03-21T04:22:43;21.92;;;11.73;;
25249;SDS011;13201;51.148;13.738;2023-03-21T04:25:09;22.65;;;12.75;;
25249;SDS011;13201;51.148;13.738;2023-03-21T04:27:35;20.38;;;11.73;;
25249;SDS011;13201;51.148;13.738;2023-03-21T04:30:01;23.00;;;11.02;;
25249;SDS011;13201;51.148;13.738;2023-03-21T04:32:27;17.52;;;10.48;;
25249;SDS011;13201;51.148;13.738;2023-03-21T04:34:57;18.98;;;11.45;;
25249;SDS011;13201;51.148;13.738;2023-03-21T04:37:24;18.85;;;10.80;;
25249;SDS011;13201;51.148;13.738;2023-03-21T04:39:51;14.02;;;9.02;;
25249;SDS011;13201;51.148;13.738;2023-03-21T04:42:17;18.73;;;10.77;;
25249;SDS011;13201;51.148;13.738;2023-03-21T04:44:43;20.92;;;12.15;;
25249;SDS011;13201;51.148;13.738;2023-03-21T04:47:10;19.95;;;11.65;;
25249;SDS011;13201;51.148;13.738;2023-03-21T04:49:37;24.13;;;12.77;;
25249;SDS011;13201;51.148;13.738;2023-03-21T04:52:03;24.50;;;13.27;;
25249;SDS011;13201;51.148;13.738;2023-03-21T04:54:29;22.07;;;13.17;;
25249;SDS011;13201;51.148;13.738;2023-03-21T04:59:22;20.90;;;11.70;;
25249;SDS011;13201;51.148;13.738;2023-03-21T05:01:47;24.73;;;13.15;;
25249;SDS011;13201;51.148;13.738;2023-03-21T05:04:14;22.40;;;12.67;;
25249;SDS011;13201;51.148;13.738;2023-03-21T05:06:40;24.02;;;12.73;;
25249;SDS011;13201;51.148;13.738;2023-03-21T05:09:07;22.40;;;12.82;;
25249;SDS011;13201;51.148;13.738;2023-03-21T05:11:34;21.48;;;12.50;;
25249;SDS011;13201;51.148;13.738;2023-03-21T05:14:04;24.52;;;13.30;;
25249;SDS011;13201;51.148;13.738;2023-03-21T05:16:32;25.27;;;14.23;;
25249;SDS011;13201;51.148;13.738;2023-03-21T05:19:00;25.00;;;13.65;;
25249;SDS011;13201;51.148;13.738;2023-03-21T05:21:33;25.15;;;14.48;;
25249;SDS011;13201;51.148;13.738;2023-03-21T05:24:06;26.13;;;14.70;;
25249;SDS011;13201;51.148;13.738;2023-03-21T05:26:36;26.40;;;14.75;;
25249;SDS011;13201;51.148;13.738;2023-03-21T05:29:05;26.38;;;14.70;;
25249;SDS011;13201;51.148;13.738;2023-03-21T05:31:31;25.97;;;14.43;;
25249;SDS011;13201;51.148;13.738;2023-03-21T05:33:57;24.98;;;14.60;;
25249;SDS011;13201;51.148;13.738;2023-03-21T05:36:23;26.45;;;14.40;;
25249;SDS011;13201;51.148;13.738;2023-03-21T05:38:49;25.05;;;13.98;;
25249;SDS011;13201;51.148;13.738;2023-03-21T05:41:15;23.67;;;13.87;;
25249;SDS011;13201;51.148;13.738;2023-03-21T05:43:42;24.70;;;13.98;;
25249;SDS011;13201;51.148;13.738;2023-03-21T05:46:08;26.85;;;13.85;;
25249;SDS011;13201;51.148;13.738;2023-03-21T05:48:35;24.30;;;14.27;;
25249;SDS011;13201;51.148;13.738;2023-03-21T05:51:01;24.65;;;14.27;;
25249;SDS011;13201;51.148;13.738;2023-03-21T05:53:28;30.20;;;14.73;;
25249;SDS011;13201;51.148;13.738;2023-03-21T05:55:53;28.70;;;15.07;;
25249;SDS011;13201;51.148;13.738;2023-03-21T05:58:19;26.75;;;14.77;;
25249;SDS011;13201;51.148;13.738;2023-03-21T06:00:45;25.25;;;14.32;;
25249;SDS011;13201;51.148;13.738;2023-03-21T06:03:10;24.42;;;12.80;;
25249;SDS011;13201;51.148;13.738;2023-03-21T06:05:36;22.80;;;12.27;;
25249;SDS011;13201;51.148;13.738;2023-03-21T06:08:02;19.90;;;11.75;;
25249;SDS011;13201;51.148;13.738;2023-03-21T06:10:27;20.17;;;10.27;;
25249;SDS011;13201;51.148;13.738;2023-03-21T06:12:53;16.80;;;9.30;;
25249;SDS011;13201;51.148;13.738;2023-03-21T06:15:19;18.65;;;8.93;;
25249;SDS011;13201;51.148;13.738;2023-03-21T06:17:44;14.80;;;8.68;;
25249;SDS011;13201;51.148;13.738;2023-03-21T06:20:10;16.63;;;8.63;;
25249;SDS011;13201;51.148;13.738;2023-03-21T06:22:37;12.73;;;6.97;;
25249;SDS011;13201;51.148;13.738;2023-03-21T06:25:03;11.27;;;6.82;;
25249;SDS011;13201;51.148;13.738;2023-03-21T06:27:31;11.65;;;6.93;;
25249;SDS011;13201;51.148;13.738;2023-03-21T06:29:57;9.87;;;6.47;;
25249;SDS011;13201;51.148;13.738;2023-03-21T06:32:23;11.95;;;6.50;;
25249;SDS011;13201;51.148;13.738;2023-03-21T06:34:50;14.15;;;7.68;;
25249;SDS011;13201;51.148;13.738;2023-03-21T06:37:16;14.30;;;6.53;;
25249;SDS011;13201;51.148;13.738;2023-03-21T06:39:42;12.60;;;6.05;;
25249;SDS011;13201;51.148;13.738;2023-03-21T06:42:07;10.68;;;6.10;;
25249;SDS011;13201;51.148;13.738;2023-03-21T06:44:33;9.93;;;5.22;;
25249;SDS011;13201;51.148;13.738;2023-03-21T06:46:59;10.07;;;5.23;;
25249;SDS011;13201;51.148;13.738;2023-03-21T06:49:25;9.88;;;5.25;;
25249;SDS011;13201;51.148;13.738;2023-03-21T06:51:51;8.87;;;5.17;;
25249;SDS011;13201;51.148;13.738;2023-03-21T06:54:17;10.57;;;5.13;;
25249;SDS011;13201;51.148;13.738;2023-03-21T06:56:44;12.70;;;5.70;;
25249;SDS011;13201;51.148;13.738;2023-03-21T06:59:10;7.93;;;5.05;;
25249;SDS011;13201;51.148;13.738;2023-03-21T07:01:36;8.88;;;4.90;;
25249;SDS011;13201;51.148;13.738;2023-03-21T07:04:02;10.75;;;5.70;;
25249;SDS011;13201;51.148;13.738;2023-03-21T07:06:29;10.65;;;5.15;;
25249;SDS011;13201;51.148;13.738;2023-03-21T07:08:55;10.07;;;5.27;;
25249;SDS011;13201;51.148;13.738;2023-03-21T07:11:21;11.27;;;5.65;;
25249;SDS011;13201;51.148;13.738;2023-03-21T07:13:47;10.18;;;5.35;;
25249;SDS011;13201;51.148;13.738;2023-03-21T07:16:14;10.20;;;5.72;;
25249;SDS011;13201;51.148;13.738;2023-03-21T07:21:06;9.90;;;5.63;;
25249;SDS011;13201;51.148;13.738;2023-03-21T07:23:32;12.30;;;5.80;;
25249;SDS011;13201;51.148;13.738;2023-03-21T07:25:58;9.80;;;5.70;;
25249;SDS011;13201;51.148;13.738;2023-03-21T07:28:25;8.68;;;5.55;;
25249;SDS011;13201;51.148;13.738;2023-03-21T07:30:55;12.13;;;5.30;;
25249;SDS011;13201;51.148;13.738;2023-03-21T07:33:23;9.75;;;5.03;;
25249;SDS011;13201;51.148;13.738;2023-03-21T07:35:50;13.27;;;5.38;;
25249;SDS011;13201;51.148;13.738;2023-03-21T07:38:19;13.43;;;5.35;;
25249;SDS011;13201;51.148;13.738;2023-03-21T07:40:45;13.63;;;5.47;;
25249;SDS011;13201;51.148;13.738;2023-03-21T07:43:13;11.60;;;5.57;;
25249;SDS011;13201;51.148;13.738;2023-03-21T07:45:39;11.20;;;5.55;;
25249;SDS011;13201;51.148;13.738;2023-03-21T07:48:06;13.57;;;6.28;;
25249;SDS011;13201;51.148;13.738;2023-03-21T07:50:32;12.27;;;5.70;;
25249;SDS011;13201;51.148;13.738;2023-03-21T07:52:58;11.18;;;5.57;;
25249;SDS011;13201;51.148;13.738;2023-03-21T07:55:24;8.67;;;5.57;;
25249;SDS011;13201;51.148;13.738;2023-03-21T07:57:51;11.67;;;5.60;;
25249;SDS011;13201;51.148;13.738;2023-03-21T08:00:18;10.23;;;5.77;;
25249;SDS011;13201;51.148;13.738;2023-03-21T08:02:53;12.70;;;6.00;;
25249;SDS011;13201;51.148;13.738;2023-03-21T08:05:20;12.25;;;5.97;;
25249;SDS011;13201;51.148;13.738;2023-03-21T08:07:47;10.60;;;5.65;;
25249;SDS011;13201;51.148;13.738;2023-03-21T08:10:13;11.23;;;5.93;;
25249;SDS011;13201;51.148;13.738;2023-03-21T08:12:39;11.95;;;5.75;;
25249;SDS011;13201;51.148;13.738;2023-03-21T08:15:05;12.85;;;5.78;;
25249;SDS011;13201;51.148;13.738;2023-03-21T08:17:32;13.65;;;6.03;;
25249;SDS011;13201;51.148;13.738;2023-03-21T08:19:57;9.13;;;4.93;;
25249;SDS011;13201;51.148;13.738;2023-03-21T08:22:23;11.18;;;5.88;;
25249;SDS011;13201;51.148;13.738;2023-03-21T08:24:49;12.77;;;5.75;;
25249;SDS011;13201;51.148;13.738;2023-03-21T08:27:14;10.57;;;5.72;;
25249;SDS011;13201;51.148;13.738;2023-03-21T08:29:40;11.25;;;6.22;;
25249;SDS011;13201;51.148;13.738;2023-03-21T08:32:06;10.02;;;5.57;;
25249;SDS011;13201;51.148;13.738;2023-03-21T08:34:32;14.70;;;6.55;;
25249;SDS011;13201;51.148;13.738;2023-03-21T08:36:59;11.95;;;5.90;;
25249;SDS011;13201;51.148;13.738;2023-03-21T08:39:25;9.85;;;5.55;;
25249;SDS011;13201;51.148;13.738;2023-03-21T08:41:51;13.33;;;5.80;;
25249;SDS011;13201;51.148;13.738;2023-03-21T08:44:17;11.10;;;6.27;;
25249;SDS011;13201;51.148;13.738;2023-03-21T08:46:44;13.48;;;6.20;;
25249;SDS011;13201;51.148;13.738;2023-03-21T08:49:09;10.00;;;5.55;;
25249;SDS011;13201;51.148;13.738;2023-03-21T08:51:36;13.18;;;6.00;;
25249;SDS011;13201;51.148;13.738;2023-03-21T08:54:02;11.32;;;6.15;;
25249;SDS011;13201;51.148;13.738;2023-03-21T08:56:28;10.27;;;5.97;;
25249;SDS011;13201;51.148;13.738;2023-03-21T08:58:53;11.02;;;5.60;;
25249;SDS011;13201;51.148;13.738;2023-03-21T09:01:19;9.82;;;5.10;;
25249;SDS011;13201;51.148;13.738;2023-03-21T09:03:45;13.50;;;5.72;;
25249;SDS011;13201;51.148;13.738;2023-03-21T09:06:10;10.93;;;5.40;;
25249;SDS011;13201;51.148;13.738;2023-03-21T09:08:38;12.18;;;5.63;;
25249;SDS011;13201;51.148;13.738;2023-03-21T09:11:06;12.82;;;5.78;;
25249;SDS011;13201;51.148;13.738;2023-03-21T09:13:32;10.90;;;5.03;;
25249;SDS011;13201;51.148;13.738;2023-03-21T09:15:58;14.57;;;5.28;;
25249;SDS011;13201;51.148;13.738;2023-03-21T09:18:25;11.25;;;4.57;;
25249;SDS011;13201;51.148;13.738;2023-03-21T09:21:06;8.93;;;4.75;;
25249;SDS011;13201;51.148;13.738;2023-03-21T09:23:36;10.50;;;5.13;;
25249;SDS011;13201;51.148;13.738;2023-03-21T09:28:29;8.68;;;3.78;;
25249;SDS011;13201;51.148;13.738;2023-03-21T09:30:57;9.52;;;4.28;;
25249;SDS011;13201;51.148;13.738;2023-03-21T09:33:24;9.63;;;4.38;;
25249;SDS011;13201;51.148;13.738;2023-03-21T09:35:52;8.63;;;4.07;;
25249;SDS011;13201;51.148;13.738;2023-03-21T09:38:18;10.98;;;4.32;;
25249;SDS011;13201;51.148;13.738;2023-03-21T09:51:49;8.65;;;4.20;;
25249;SDS011;13201;51.148;13.738;2023-03-21T09:54:22;9.48;;;4.20;;
25249;SDS011;13201;51.148;13.738;2023-03-21T09:56:52;9.32;;;4.50;;
25249;SDS011;13201;51.148;13.738;2023-03-21T09:59:41;8.77;;;4.60;;
25249;SDS011;13201;51.148;13.738;2023-03-21T10:04:56;9.88;;;4.90;;
25249;SDS011;13201;51.148;13.738;2023-03-21T10:07:24;8.70;;;5.20;;
25249;SDS011;13201;51.148;13.738;2023-03-21T10:09:52;9.52;;;4.68;;
25249;SDS011;13201;51.148;13.738;2023-03-21T10:12:20;8.57;;;4.32;;
25249;SDS011;13201;51.148;13.738;2023-03-21T10:14:47;7.90;;;4.63;;
25249;SDS011;13201;51.148;13.738;2023-03-21T10:17:37;13.40;;;4.97;;
25249;SDS011;13201;51.148;13.738;2023-03-21T10:22:42;9.50;;;4.15;;
25249;SDS011;13201;51.148;13.738;2023-03-21T10:25:12;7.93;;;4.40;;
25249;SDS011;13201;51.148;13.738;2023-03-21T10:28:00;8.10;;;4.80;;
25249;SDS011;13201;51.148;13.738;2023-03-21T10:30:31;9.23;;;4.57;;
25249;SDS011;13201;51.148;13.738;2023-03-21T10:33:03;8.63;;;4.63;;
25249;SDS011;13201;51.148;13.738;2023-03-21T10:35:33;9.90;;;4.45;;
25249;SDS011;13201;51.148;13.738;2023-03-21T10:38:02;8.02;;;4.90;;
25249;SDS011;13201;51.148;13.738;2023-03-21T10:40:29;12.15;;;5.28;;
25249;SDS011;13201;51.148;13.738;2023-03-21T10:42:55;12.50;;;5.70;;
25249;SDS011;13201;51.148;13.738;2023-03-21T10:45:39;8.52;;;4.53;;
25249;SDS011;13201;51.148;13.738;2023-03-21T10:48:06;8.30;;;4.70;;
25249;SDS011;13201;51.148;13.738;2023-03-21T10:52:58;9.57;;;4.37;;
25249;SDS011;13201;51.148;13.738;2023-03-21T10:57:58;8.50;;;4.75;;
25249;SDS011;13201;51.148;13.738;2023-03-21T11:00:53;8.55;;;4.25;;
25249;SDS011;13201;51.148;13.738;2023-03-21T11:03:34;10.27;;;4.22;;
25249;SDS011;13201;51.148;13.738;2023-03-21T11:06:06;8.93;;;4.35;;
25249;SDS011;13201;51.148;13.738;2023-03-21T11:08:46;8.40;;;4.60;;
25249;SDS011;13201;51.148;13.738;2023-03-21T11:11:23;8.60;;;4.30;;
25249;SDS011;13201;51.148;13.738;2023-03-21T11:13:55;8.25;;;4.38;;
25249;SDS011;13201;51.148;13.738;2023-03-21T11:16:39;5.93;;;3.90;;
25249;SDS011;13201;51.148;13.738;2023-03-21T11:19:51;6.97;;;3.90;;
25249;SDS011;13201;51.148;13.738;2023-03-21T11:22:03;6.85;;;4.28;;
25249;SDS011;13201;51.148;13.738;2023-03-21T11:24:31;7.20;;;3.60;;
25249;SDS011;13201;51.148;13.738;2023-03-21T11:26:58;7.82;;;3.97;;
25249;SDS011;13201;51.148;13.738;2023-03-21T11:29:29;9.07;;;4.45;;
25249;SDS011;13201;51.148;13.738;2023-03-21T11:32:01;7.32;;;4.35;;
25249;SDS011;13201;51.148;13.738;2023-03-21T11:34:57;7.03;;;4.50;;
25249;SDS011;13201;51.148;13.738;2023-03-21T11:37:52;8.02;;;4.07;;
25249;SDS011;13201;51.148;13.738;2023-03-21T11:42:52;9.63;;;4.03;;
25249;SDS011;13201;51.148;13.738;2023-03-21T11:47:54;6.60;;;4.30;;
25249;SDS011;13201;51.148;13.738;2023-03-21T11:53:08;8.55;;;4.13;;
25249;SDS011;13201;51.148;13.738;2023-03-21T12:06:48;7.03;;;3.83;;
25249;SDS011;13201;51.148;13.738;2023-03-21T12:09:36;6.20;;;3.80;;
25249;SDS011;13201;51.148;13.738;2023-03-21T12:12:43;5.32;;;3.70;;
25249;SDS011;13201;51.148;13.738;2023-03-21T12:15:28;5.68;;;4.05;;
25249;SDS011;13201;51.148;13.738;2023-03-21T12:20:48;8.10;;;3.88;;
25249;SDS011;13201;51.148;13.738;2023-03-21T12:23:45;7.40;;;4.05;;
25249;SDS011;13201;51.148;13.738;2023-03-21T12:26:30;6.88;;;3.50;;
25249;SDS011;13201;51.148;13.738;2023-03-21T12:35:08;7.38;;;3.90;;
25249;SDS011;13201;51.148;13.738;2023-03-21T12:40:38;4.57;;;3.65;;
25249;SDS011;13201;51.148;13.738;2023-03-21T12:45:44;4.97;;;3.20;;
25249;SDS011;13201;51.148;13.738;2023-03-21T12:48:23;6.55;;;3.10;;
25249;SDS011;13201;51.148;13.738;2023-03-21T12:50:52;5.30;;;3.00;;
25249;SDS011;13201;51.148;13.738;2023-03-21T12:56:15;6.95;;;3.60;;
25249;SDS011;13201;51.148;13.738;2023-03-21T12:58:48;4.88;;;3.10;;
25249;SDS011;13201;51.148;13.738;2023-03-21T13:01:29;4.75;;;3.10;;
25249;SDS011;13201;51.148;13.738;2023-03-21T13:04:05;4.90;;;3.00;;
25249;SDS011;13201;51.148;13.738;2023-03-21T13:06:51;8.10;;;3.22;;
25249;SDS011;13201;51.148;13.738;2023-03-21T13:09:30;4.10;;;2.70;;
25249;SDS011;13201;51.148;13.738;2023-03-21T13:12:02;4.28;;;2.80;;
25249;SDS011;13201;51.148;13.738;2023-03-21T13:14:37;3.75;;;2.50;;
25249;SDS011;13201;51.148;13.738;2023-03-21T13:17:36;4.35;;;2.75;;
25249;SDS011;13201;51.148;13.738;2023-03-21T13:20:17;4.32;;;2.78;;
25249;SDS011;13201;51.148;13.738;2023-03-21T13:23:09;4.90;;;2.67;;
25249;SDS011;13201;51.148;13.738;2023-03-21T13:25:44;4.65;;;3.03;;
25249;SDS011;13201;51.148;13.738;2023-03-21T13:28:17;5.30;;;2.60;;
25249;SDS011;13201;51.148;13.738;2023-03-21T13:30:43;3.05;;;2.20;;
25249;SDS011;13201;51.148;13.738;2023-03-21T13:33:12;3.28;;;2.45;;
25249;SDS011;13201;51.148;13.738;2023-03-21T13:35:42;3.25;;;2.45;;
25249;SDS011;13201;51.148;13.738;2023-03-21T13:38:17;3.13;;;2.13;;
25249;SDS011;13201;51.148;13.738;2023-03-21T13:40:51;3.67;;;2.20;;
25249;SDS011;13201;51.148;13.738;2023-03-21T13:59:10;3.00;;;2.25;;
25249;SDS011;13201;51.148;13.738;2023-03-21T14:01:38;4.00;;;2.38;;
25249;SDS011;13201;51.148;13.738;2023-03-21T14:04:13;3.60;;;2.40;;
25249;SDS011;13201;51.148;13.738;2023-03-21T14:09:18;4.38;;;2.40;;
25249;SDS011;13201;51.148;13.738;2023-03-21T14:12:03;3.58;;;2.38;;
25249;SDS011;13201;51.148;13.738;2023-03-21T14:14:35;5.78;;;2.53;;
25249;SDS011;13201;51.148;13.738;2023-03-21T14:17:11;2.88;;;2.03;;
25249;SDS011;13201;51.148;13.738;2023-03-21T14:19:55;2.92;;;2.20;;
25249;SDS011;13201;51.148;13.738;2023-03-21T14:22:25;4.38;;;2.40;;
25249;SDS011;13201;51.148;13.738;2023-03-21T14:24:57;6.45;;;2.70;;
25249;SDS011;13201;51.148;13.738;2023-03-21T14:27:24;3.17;;;2.10;;
25249;SDS011;13201;51.148;13.738;2023-03-21T14:29:54;3.55;;;2.30;;
25249;SDS011;13201;51.148;13.738;2023-03-21T14:32:22;4.22;;;2.08;;
25249;SDS011;13201;51.148;13.738;2023-03-21T14:34:50;3.00;;;1.83;;
25249;SDS011;13201;51.148;13.738;2023-03-21T14:39:59;4.18;;;1.92;;
25249;SDS011;13201;51.148;13.738;2023-03-21T14:42:26;3.13;;;2.17;;
25249;SDS011;13201;51.148;13.738;2023-03-21T14:44:57;3.65;;;2.33;;
25249;SDS011;13201;51.148;13.738;2023-03-21T14:47:28;4.75;;;2.10;;
25249;SDS011;13201;51.148;13.738;2023-03-21T14:49:56;2.97;;;2.20;;
25249;SDS011;13201;51.148;13.738;2023-03-21T14:52:28;32.28;;;21.10;;
25249;SDS011;13201;51.148;13.738;2023-03-21T14:54:56;14.57;;;8.60;;
25249;SDS011;13201;51.148;13.738;2023-03-21T14:57:23;5.47;;;3.63;;
25249;SDS011;13201;51.148;13.738;2023-03-21T14:59:53;4.60;;;2.25;;
25249;SDS011;13201;51.148;13.738;2023-03-21T15:02:23;5.28;;;2.35;;
25249;SDS011;13201;51.148;13.738;2023-03-21T15:04:53;4.88;;;2.13;;
25249;SDS011;13201;51.148;13.738;2023-03-21T15:07:28;5.90;;;2.90;;
25249;SDS011;13201;51.148;13.738;2023-03-21T15:09:57;10.35;;;3.60;;
25249;SDS011;13201;51.148;13.738;2023-03-21T15:12:26;4.65;;;2.47;;
25249;SDS011;13201;51.148;13.738;2023-03-21T15:14:51;2.95;;;2.10;;
25249;SDS011;13201;51.148;13.738;2023-03-21T15:17:18;3.30;;;2.28;;
25249;SDS011;13201;51.148;13.738;2023-03-21T15:19:45;21.08;;;10.80;;
25249;SDS011;13201;51.148;13.738;2023-03-21T15:24:52;183.15;;;68.03;;
25249;SDS011;13201;51.148;13.738;2023-03-21T15:27:25;108.97;;;44.45;;
25249;SDS011;13201;51.148;13.738;2023-03-21T15:29:51;73.70;;;33.97;;
25249;SDS011;13201;51.148;13.738;2023-03-21T15:32:20;18.52;;;9.50;;
25249;SDS011;13201;51.148;13.738;2023-03-21T15:34:49;5.90;;;3.83;;
25249;SDS011;13201;51.148;13.738;2023-03-21T15:37:36;13.60;;;7.63;;
25249;SDS011;13201;51.148;13.738;2023-03-21T15:40:22;17.23;;;9.00;;
25249;SDS011;13201;51.148;13.738;2023-03-21T15:42:50;9.38;;;5.10;;
25249;SDS011;13201;51.148;13.738;2023-03-21T15:45:45;7.68;;;4.35;;
25249;SDS011;13201;51.148;13.738;2023-03-21T15:48:15;25.88;;;11.98;;
25249;SDS011;13201;51.148;13.738;2023-03-21T15:53:19;5.10;;;3.17;;
25249;SDS011;13201;51.148;13.738;2023-03-21T15:55:56;3.80;;;2.28;;
25249;SDS011;13201;51.148;13.738;2023-03-21T15:58:27;3.50;;;2.22;;
25249;SDS011;13201;51.148;13.738;2023-03-21T16:01:00;4.22;;;2.40;;
25249;SDS011;13201;51.148;13.738;2023-03-21T16:03:31;3.60;;;2.10;;
25249;SDS011;13201;51.148;13.738;2023-03-21T16:08:48;4.88;;;2.40;;
25249;SDS011;13201;51.148;13.738;2023-03-21T16:13:47;3.80;;;1.92;;
25249;SDS011;13201;51.148;13.738;2023-03-21T16:16:18;8.38;;;4.30;;
25249;SDS011;13201;51.148;13.738;2023-03-21T16:18:52;3.80;;;2.30;;
25249;SDS011;13201;51.148;13.738;2023-03-21T16:21:19;3.17;;;2.03;;
25249;SDS011;13201;51.148;13.738;2023-03-21T16:23:47;3.13;;;2.00;;
25249;SDS011;13201;51.148;13.738;2023-03-21T16:26:16;3.92;;;1.77;;
25249;SDS011;13201;51.148;13.738;2023-03-21T16:28:45;4.65;;;1.67;;
25249;SDS011;13201;51.148;13.738;2023-03-21T16:31:15;2.33;;;1.90;;
25249;SDS011;13201;51.148;13.738;2023-03-21T16:33:43;3.90;;;2.50;;
25249;SDS011;13201;51.148;13.738;2023-03-21T16:38:43;5.20;;;3.10;;
25249;SDS011;13201;51.148;13.738;2023-03-21T16:41:10;4.25;;;2.60;;
25249;SDS011;13201;51.148;13.738;2023-03-21T16:46:29;19.50;;;9.40;;
25249;SDS011;13201;51.148;13.738;2023-03-21T16:48:55;8.43;;;4.70;;
25249;SDS011;13201;51.148;13.738;2023-03-21T16:51:22;34.88;;;16.13;;
25249;SDS011;13201;51.148;13.738;2023-03-21T16:53:53;13.95;;;7.30;;
25249;SDS011;13201;51.148;13.738;2023-03-21T16:56:36;10.20;;;4.70;;
25249;SDS011;13201;51.148;13.738;2023-03-21T16:59:04;6.80;;;3.00;;
25249;SDS011;13201;51.148;13.738;2023-03-21T17:01:31;4.80;;;2.30;;
25249;SDS011;13201;51.148;13.738;2023-03-21T17:03:56;3.05;;;1.92;;
25249;SDS011;13201;51.148;13.738;2023-03-21T17:06:23;3.22;;;1.80;;
25249;SDS011;13201;51.148;13.738;2023-03-21T17:08:51;4.45;;;2.58;;
25249;SDS011;13201;51.148;13.738;2023-03-21T17:11:18;3.45;;;2.13;;
25249;SDS011;13201;51.148;13.738;2023-03-21T17:13:45;5.20;;;2.40;;
25249;SDS011;13201;51.148;13.738;2023-03-21T17:16:13;11.88;;;6.78;;